Time;durP1;ratioP1;P1;durP2;ratioP2;P2;SDS_P1;SDS_P2;PMS_P1;PMS_P2;Temp;Humidity;BMP_temperature;BMP_pressure;BME280_temperature;BME280_humidity;BME280_pressure;Samples;Min_cycle;Max_cycle;Signal;HPM_P1;HPM_P2
2023/01/02 00:01:48;;;;;;;4.88;2.17;;;;;;;19.48;50.66;100901.41;5002225;28;20026;-68
2023/01/02 00:04:13;;;;;;;4.28;2.10;;;;;;;19.48;50.83;100896.13;5002144;28;20490;-68
2023/01/02 00:06:39;;;;;;;5.50;2.40;;;;;;;19.49;50.77;100911.84;5001230;28;20033;-70
2023/01/02 00:09:06;;;;;;;5.75;2.13;;;;;;;19.49;50.61;100913.69;5000999;28;20087;-68
2023/01/02 00:11:31;;;;;;;5.35;2.00;;;;;;;19.45;50.65;100906.97;4986338;28;20046;-70
2023/01/02 00:13:57;;;;;;;6.93;2.50;;;;;;;19.48;50.89;100909.34;4995141;28;20091;-68
2023/01/02 00:16:22;;;;;;;5.55;2.03;;;;;;;19.46;50.75;100906.84;4991257;28;20044;-69
2023/01/02 00:18:48;;;;;;;5.05;1.90;;;;;;;19.43;51.01;100901.81;4995056;28;20041;-68
2023/01/02 00:21:13;;;;;;;4.93;1.98;;;;;;;19.45;50.84;100905.16;4999318;28;20041;-69
2023/01/02 00:23:39;;;;;;;7.03;3.28;;;;;;;19.43;50.70;100896.53;4986342;28;20038;-70
2023/01/02 00:26:04;;;;;;;4.75;2.10;;;;;;;19.44;50.50;100902.63;4993055;28;20534;-69
2023/01/02 00:28:30;;;;;;;5.65;2.28;;;;;;;19.40;50.83;100894.97;4988400;28;20136;-70
2023/01/02 00:30:56;;;;;;;8.18;2.17;;;;;;;19.43;50.58;100891.22;4990750;28;20030;-69
2023/01/02 00:33:21;;;;;;;4.75;2.13;;;;;;;19.39;50.79;100889.81;4992068;28;20065;-69
2023/01/02 00:35:46;;;;;;;6.10;2.45;;;;;;;19.40;50.79;100894.13;4992039;28;20137;-70
2023/01/02 00:38:12;;;;;;;4.47;2.20;;;;;;;19.40;50.73;100886.22;4990878;28;20034;-70
2023/01/02 00:40:37;;;;;;;4.95;1.90;;;;;;;19.38;50.51;100881.06;4993042;28;20069;-70
2023/01/02 00:43:03;;;;;;;5.82;2.35;;;;;;;19.36;50.76;100872.44;5000966;28;20044;-70
2023/01/02 00:45:28;;;;;;;7.85;2.28;;;;;;;19.39;50.80;100880.09;4995396;28;20037;-69
2023/01/02 00:47:54;;;;;;;5.40;2.10;;;;;;;19.37;50.70;100883.84;4988761;28;20038;-68
2023/01/02 00:50:19;;;;;;;7.57;2.30;;;;;;;19.35;50.71;100878.69;4991595;28;20449;-70
2023/01/02 00:52:45;;;;;;;5.22;2.25;;;;;;;19.33;50.81;100872.69;4986328;28;20029;-68
2023/01/02 00:55:10;;;;;;;4.25;2.22;;;;;;;19.33;50.61;100872.69;4985998;28;20037;-67
2023/01/02 00:57:35;;;;;;;6.93;2.30;;;;;;;19.35;50.80;100869.94;4994932;28;20447;-71
2023/01/02 01:00:01;;;;;;;5.68;2.00;;;;;;;19.36;50.73;100863.69;4990781;28;20775;-69
2023/01/02 01:02:26;;;;;;;5.80;2.30;;;;;;;19.35;50.71;100864.63;4987959;28;20034;-69
2023/01/02 01:04:51;;;;;;;4.85;2.05;;;;;;;19.31;50.69;100857.94;4992479;28;20073;-68
2023/01/02 01:07:17;;;;;;;5.57;2.10;;;;;;;19.34;50.71;100862.94;4988428;28;20084;-69
2023/01/02 01:09:42;;;;;;;5.10;2.33;;;;;;;19.33;50.70;100859.47;4991767;28;20295;-68
2023/01/02 01:12:07;;;;;;;7.13;2.08;;;;;;;19.33;50.50;100859.47;4989922;28;20394;-70
2023/01/02 01:14:33;;;;;;;7.60;2.55;;;;;;;19.28;50.69;100858.19;4991355;28;20035;-68
2023/01/02 01:16:59;;;;;;;5.78;1.90;;;;;;;19.31;50.73;100852.66;4993252;28;20121;-69
2023/01/02 01:19:28;;;;;;;6.80;1.88;;;;;;;19.27;50.63;100854.72;4991446;28;20065;-69
2023/01/02 01:21:53;;;;;;;7.50;2.05;;;;;;;19.30;50.72;100857.09;4993928;28;20072;-69
2023/01/02 01:24:19;;;;;;;5.35;2.22;;;;;;;19.27;50.67;100853.91;4989807;28;20071;-71
2023/01/02 01:26:44;;;;;;;5.35;2.35;;;;;;;19.28;50.60;100855.56;4981613;28;20039;-70
2023/01/02 01:29:09;;;;;;;6.47;2.58;;;;;;;19.27;50.44;100856.53;4987567;28;20030;-68
2023/01/02 01:31:34;;;;;;;6.07;2.00;;;;;;;19.28;50.70;100855.56;4997557;28;20475;-68
2023/01/02 01:34:00;;;;;;;5.27;2.20;;;;;;;19.26;50.76;100858.31;4982799;28;20041;-68
2023/01/02 01:36:25;;;;;;;4.45;2.13;;;;;;;19.27;50.70;100860.00;4988321;28;20760;-68
2023/01/02 01:38:51;;;;;;;5.88;2.20;;;;;;;19.24;50.57;100859.44;4985477;28;20161;-69
2023/01/02 01:41:19;;;;;;;8.65;2.90;;;;;;;19.24;50.77;100856.81;4990822;28;20049;-69
2023/01/02 01:43:50;;;;;;;5.20;2.40;;;;;;;19.21;50.62;100861.34;4989218;28;20454;-68
2023/01/02 01:46:30;;;;;;;5.65;2.28;;;;;;;19.25;50.74;100866.38;4991786;28;20524;-69
2023/01/02 01:49:12;;;;;;;5.30;2.13;;;;;;;19.24;50.92;100868.19;4992752;28;20096;-67
2023/01/02 01:51:58;;;;;;;5.05;1.90;;;;;;;19.21;50.76;100868.47;4990893;28;20096;-69
2023/01/02 01:54:29;;;;;;;6.88;2.25;;;;;;;19.23;50.91;100876.25;4990353;28;20040;-68
2023/01/02 01:57:02;;;;;;;5.43;1.95;;;;;;;19.19;50.74;100884.44;4994795;28;20038;-71
2023/01/02 01:59:27;;;;;;;6.10;3.58;;;;;;;19.23;50.59;100881.53;4995296;28;20044;-71
2023/01/02 02:01:53;;;;;;;5.40;2.05;;;;;;;19.24;50.98;100880.59;4994481;28;20026;-71
2023/01/02 02:04:20;;;;;;;6.07;2.28;;;;;;;19.20;50.95;100875.56;4992520;28;20506;-69
2023/01/02 02:06:48;;;;;;;4.57;1.83;;;;;;;19.18;50.95;100877.50;4997052;28;20034;-68
2023/01/02 02:09:21;;;;;;;6.05;2.25;;;;;;;19.18;50.88;100882.78;4987356;28;20491;-68
2023/01/02 02:11:47;;;;;;;7.15;2.25;;;;;;;19.21;50.86;100884.31;4985701;28;20592;-70
2023/01/02 02:14:12;;;;;;;6.07;2.50;;;;;;;19.19;50.75;100881.78;4984723;28;20034;-69
2023/01/02 02:16:51;;;;;;;7.10;2.03;;;;;;;19.16;51.03;100878.59;4997649;28;20034;-69
2023/01/02 02:19:48;;;;;;;4.88;2.10;;;;;;;19.20;51.04;100880.84;4990255;28;20049;-69
2023/01/02 02:22:35;;;;;;;5.68;1.90;;;;;;;19.18;51.08;100888.06;5003986;28;20499;-69
2023/01/02 02:25:21;;;;;;;5.05;2.00;;;;;;;19.17;51.03;100880.28;4999907;28;20049;-67
2023/01/02 02:28:00;;;;;;;7.53;2.97;;;;;;;19.14;51.09;100885.81;4986834;28;20446;-69
2023/01/02 02:30:36;;;;;;;6.28;2.13;;;;;;;19.16;51.31;100887.34;4995078;28;20372;-68
2023/01/02 02:33:01;;;;;;;4.72;2.17;;;;;;;19.16;50.96;100882.06;4984330;28;20034;-69
2023/01/02 02:35:32;;;;;;;5.87;2.20;;;;;;;19.15;50.89;100875.13;4983907;28;20105;-68
2023/01/02 02:38:19;;;;;;;6.30;2.10;;;;;;;19.15;51.00;100880.41;4984109;28;20054;-69
2023/01/02 02:40:46;;;;;;;6.10;2.10;;;;;;;19.17;50.98;100885.56;4996000;28;20452;-68
2023/01/02 02:43:35;;;;;;;4.53;1.90;;;;;;;19.16;51.20;100889.16;4986878;28;20105;-69
2023/01/02 02:46:15;;;;;;;6.55;2.22;;;;;;;19.14;51.09;100877.88;4996561;28;20026;-68
2023/01/02 02:48:55;;;;;;;6.55;2.30;;;;;;;19.11;51.21;100876.34;4991487;28;20045;-68
2023/01/02 02:51:52;;;;;;;4.93;2.20;;;;;;;19.14;51.06;100880.53;4998116;28;20042;-69
2023/01/02 02:54:23;;;;;;;5.40;1.80;;;;;;;19.10;50.82;100882.56;5002158;28;20033;-66
2023/01/02 02:56:51;;;;;;;4.80;1.80;;;;;;;19.10;51.29;100884.38;5002741;28;20069;-69
2023/01/02 02:59:18;;;;;;;4.68;2.00;;;;;;;19.10;51.06;100893.13;5003040;28;20044;-68
2023/01/02 03:01:43;;;;;;;7.03;2.05;;;;;;;19.09;51.26;100883.56;4988491;28;20403;-67
2023/01/02 03:04:19;;;;;;;4.88;2.33;;;;;;;19.11;51.15;100894.00;4987982;28;20044;-69
2023/01/02 03:07:07;;;;;;;5.22;1.80;;;;;;;19.12;51.21;100887.72;4988690;28;20038;-66
2023/01/02 03:09:42;;;;;;;4.65;2.00;;;;;;;19.12;51.15;100885.09;4988370;28;20037;-69
2023/01/02 03:12:13;;;;;;;5.72;1.88;;;;;;;19.11;51.30;100878.16;4999868;28;20042;-68
2023/01/02 03:14:50;;;;;;;5.00;2.05;;;;;;;19.11;51.21;100886.91;4986378;28;20034;-69
2023/01/02 03:17:26;;;;;;;4.97;2.08;;;;;;;19.06;51.19;100875.88;4989166;28;20121;-69
2023/01/02 03:20:00;;;;;;;5.82;1.90;;;;;;;19.07;51.12;100877.53;5000868;28;20037;-69
2023/01/02 03:22:32;;;;;;;5.18;1.90;;;;;;;19.08;51.26;100875.75;5002081;28;20045;-70
2023/01/02 03:24:58;;;;;;;5.88;1.90;;;;;;;19.06;51.20;100862.69;4987383;28;20042;-70
2023/01/02 03:27:26;;;;;;;4.97;1.63;;;;;;;19.09;51.15;100869.50;4986011;28;20061;-70
2023/01/02 03:30:16;;;;;;;5.72;2.22;;;;;;;19.07;51.21;100871.44;4997577;28;20042;-71
2023/01/02 03:32:52;;;;;;;8.43;1.95;;;;;;;19.04;51.33;100864.59;4995257;28;20038;-69
2023/01/02 03:35:23;;;;;;;3.90;1.80;;;;;;;19.07;51.17;100879.38;4983486;28;20066;-71
2023/01/02 03:37:53;;;;;;;6.15;1.90;;;;;;;19.03;51.13;100881.44;4983612;28;20050;-71
2023/01/02 03:40:24;;;;;;;4.32;1.80;;;;;;;19.02;51.16;100879.75;4983075;28;20042;-70
2023/01/02 03:43:07;;;;;;;6.20;2.22;;;;;;;19.06;51.26;100890.88;4984349;28;20121;-71
2023/01/02 03:45:39;;;;;;;6.00;2.10;;;;;;;19.02;51.20;100885.03;5002227;28;20478;-69
2023/01/02 03:48:25;;;;;;;4.38;1.95;;;;;;;19.04;51.20;100893.66;5001952;28;20030;-68
2023/01/02 03:50:54;;;;;;;3.33;1.67;;;;;;;19.02;51.12;100890.31;4992112;28;20033;-68
2023/01/02 03:53:20;;;;;;;5.63;2.03;;;;;;;19.02;51.27;100885.03;4998182;28;20390;-70
2023/01/02 03:55:59;;;;;;;4.95;1.95;;;;;;;19.03;51.28;100900.75;4984468;28;20038;-69
2023/01/02 03:58:57;;;;;;;4.53;1.73;;;;;;;19.02;51.47;100907.00;5001457;28;20124;-70
2023/01/02 04:01:38;;;;;;;4.97;2.10;;;;;;;19.02;51.19;100891.13;4993708;28;20113;-69
2023/01/02 04:04:14;;;;;;;6.80;2.20;;;;;;;19.00;51.34;100901.00;4995258;28;20489;-69
2023/01/02 04:06:45;;;;;;;3.35;1.67;;;;;;;19.02;51.22;100904.34;4982796;28;20045;-69
2023/01/02 04:09:17;;;;;;;5.07;1.90;;;;;;;18.97;51.20;100897.78;4982662;28;20060;-69
2023/01/02 04:11:49;;;;;;;7.30;2.65;;;;;;;19.00;51.32;100905.47;4982338;28;20080;-70
2023/01/02 04:14:24;;;;;;;3.70;1.70;;;;;;;18.97;51.20;100895.97;4990735;28;20037;-68
2023/01/02 04:16:52;;;;;;;6.78;1.80;;;;;;;19.00;51.24;100908.09;4998795;28;20037;-70
2023/01/02 04:19:23;;;;;;;4.45;1.80;;;;;;;18.95;51.26;100899.72;4989008;28;20112;-68
2023/01/02 04:21:53;;;;;;;6.72;2.03;;;;;;;18.94;51.43;100909.44;4987723;28;20149;-68
2023/01/02 04:24:26;;;;;;;5.82;1.60;;;;;;;18.94;51.25;100912.06;4993960;28;20124;-69
2023/01/02 04:27:27;;;;;;;4.53;1.90;;;;;;;19.01;51.26;100926.47;4991807;28;20030;-67
2023/01/02 04:29:55;;;;;;;6.18;1.98;;;;;;;18.96;51.02;100919.88;4978366;28;20053;-68
2023/01/02 04:32:36;;;;;;;6.55;2.08;;;;;;;18.95;51.19;100924.34;4990238;28;20870;-71
2023/01/02 04:35:05;;;;;;;5.18;2.10;;;;;;;18.97;51.37;100921.56;4997562;28;20812;-69
2023/01/02 04:37:34;;;;;;;6.20;2.25;;;;;;;18.94;51.28;100917.34;4988072;28;20209;-69
2023/01/02 04:40:04;;;;;;;5.97;2.38;;;;;;;18.95;51.34;100929.63;4994684;28;21192;-69
2023/01/02 04:42:30;;;;;;;5.63;2.10;;;;;;;18.97;51.39;100926.84;4987326;28;20475;-69
2023/01/02 04:44:55;;;;;;;5.93;1.90;;;;;;;18.97;51.36;100929.47;4997664;28;20080;-69
2023/01/02 04:47:20;;;;;;;5.07;1.90;;;;;;;18.97;51.29;100930.31;4991690;28;20145;-69
2023/01/02 04:49:46;;;;;;;6.50;1.77;;;;;;;18.94;51.17;100920.00;4988049;28;20701;-69
2023/01/02 04:52:11;;;;;;;8.73;2.53;;;;;;;18.93;51.32;100926.28;4989799;28;20390;-68
2023/01/02 04:54:36;;;;;;;4.20;1.70;;;;;;;18.92;51.25;100927.22;4992809;28;20034;-70
2023/01/02 04:57:02;;;;;;;5.78;2.40;;;;;;;18.96;51.40;100946.28;4989968;28;20076;-70
2023/01/02 04:59:27;;;;;;;6.55;2.08;;;;;;;18.92;51.16;100944.88;4991716;28;20041;-69
2023/01/02 05:01:52;;;;;;;5.15;1.80;;;;;;;18.95;51.29;100947.28;4990704;28;20062;-69
2023/01/02 05:04:18;;;;;;;3.90;1.63;;;;;;;18.93;51.28;100950.03;4989425;28;20399;-70
2023/01/02 05:06:43;;;;;;;3.95;1.90;;;;;;;18.92;51.27;100958.91;4991117;28;20488;-70
2023/01/02 05:09:08;;;;;;;5.20;1.90;;;;;;;18.89;51.54;100945.13;4993155;28;20058;-69
2023/01/02 05:11:33;;;;;;;3.65;1.67;;;;;;;18.92;51.42;100943.06;4992816;28;20282;-70
2023/01/02 05:13:59;;;;;;;5.65;2.00;;;;;;;18.91;51.28;100948.47;4999376;28;20114;-69
2023/01/02 05:16:24;;;;;;;4.33;1.70;;;;;;;18.90;51.37;100947.66;4995548;28;20521;-69
2023/01/02 05:18:51;;;;;;;5.57;2.28;;;;;;;18.94;51.21;100959.63;4994599;28;20266;-71
2023/01/02 05:24:02;;;;;;;5.65;1.77;;;;;;;18.92;51.25;100966.84;4997317;28;20037;-68
2023/01/02 05:26:29;;;;;;;5.93;1.70;;;;;;;18.90;51.32;100962.63;4994693;28;20121;-66
2023/01/02 05:28:55;;;;;;;4.57;1.90;;;;;;;18.89;51.38;100961.81;4995674;28;20042;-68
2023/01/02 05:31:20;;;;;;;5.60;1.73;;;;;;;18.91;51.25;100964.31;4995154;28;20032;-68
2023/01/02 05:33:56;;;;;;;5.90;1.70;;;;;;;18.91;51.28;100974.88;4996402;28;20957;-69
2023/01/02 05:36:23;;;;;;;4.38;1.70;;;;;;;18.87;51.27;100973.44;4994085;28;20058;-68
2023/01/02 05:38:49;;;;;;;4.78;1.92;;;;;;;18.90;51.42;100983.75;4993229;28;20580;-68
2023/01/02 05:41:15;;;;;;;4.63;1.80;;;;;;;18.90;51.27;100989.91;4995742;28;20108;-68
2023/01/02 05:43:40;;;;;;;4.00;1.67;;;;;;;18.88;51.33;100997.09;4997613;28;20038;-71
2023/01/02 05:46:07;;;;;;;5.55;1.70;;;;;;;18.86;51.14;100993.75;4996192;28;20116;-67
2023/01/02 05:48:32;;;;;;;4.75;1.77;;;;;;;18.86;51.29;100996.38;4999359;28;20034;-69
2023/01/02 05:51:03;;;;;;;5.82;1.75;;;;;;;18.87;51.27;101010.41;4998072;28;20041;-67
2023/01/02 05:53:29;;;;;;;3.35;1.48;;;;;;;18.85;51.29;101006.13;4993658;28;20029;-69
2023/01/02 05:55:54;;;;;;;5.00;1.73;;;;;;;18.84;51.11;100998.31;4994341;28;21181;-69
2023/01/02 05:58:19;;;;;;;7.18;1.90;;;;;;;18.86;51.44;101004.31;4995112;28;20057;-68
2023/01/02 06:00:44;;;;;;;4.63;1.60;;;;;;;18.90;51.29;101018.09;4996995;28;20040;-70
2023/01/02 06:03:10;;;;;;;5.28;1.70;;;;;;;18.85;51.17;101008.75;4992428;28;20038;-68
2023/01/02 06:05:35;;;;;;;4.90;1.98;;;;;;;18.85;51.19;101003.47;4993915;28;20030;-67
2023/01/02 06:08:00;;;;;;;4.80;1.52;;;;;;;18.85;51.24;101016.69;4996681;28;20530;-68
2023/01/02 06:10:26;;;;;;;4.15;1.70;;;;;;;18.87;51.19;101015.69;4994973;28;20090;-67
2023/01/02 06:12:51;;;;;;;4.32;1.60;;;;;;;18.89;51.25;101022.53;4999261;28;20056;-67
2023/01/02 06:15:16;;;;;;;4.75;1.73;;;;;;;18.87;51.19;101035.03;5009232;28;20098;-66
2023/01/02 06:17:41;;;;;;;3.83;1.80;;;;;;;18.88;51.24;101044.63;4997606;28;20049;-67
2023/01/02 06:20:07;;;;;;;4.72;1.52;;;;;;;18.78;51.24;101033.94;4994534;28;20038;-68
2023/01/02 06:22:33;;;;;;;4.93;1.70;;;;;;;18.85;51.27;101056.28;5008107;28;20033;-67
2023/01/02 06:24:58;;;;;;;4.53;1.70;;;;;;;18.87;51.11;101060.59;5002845;28;20029;-66
2023/01/02 06:27:23;;;;;;;4.38;1.85;;;;;;;18.89;51.14;101071.88;4994589;28;20034;-65
2023/01/02 06:29:48;;;;;;;3.88;1.67;;;;;;;18.88;51.43;101073.66;4998549;28;20121;-66
2023/01/02 06:32:14;;;;;;;4.17;1.70;;;;;;;18.91;50.93;101101.66;4999623;28;20034;-67
2023/01/02 06:34:39;;;;;;;5.32;1.50;;;;;;;18.90;51.13;101108.75;5005877;28;20259;-69
2023/01/02 06:37:04;;;;;;;2.92;1.35;;;;;;;18.94;51.11;101115.44;4998305;28;20049;-67
2023/01/02 06:39:29;;;;;;;3.15;1.25;;;;;;;18.93;51.15;101118.19;5009239;28;20457;-68
2023/01/02 06:41:55;;;;;;;3.20;1.40;;;;;;;18.93;50.95;101110.28;4990219;28;20527;-68
2023/01/02 06:44:20;;;;;;;3.10;1.03;;;;;;;18.95;51.14;101127.69;5001009;28;20042;-67
2023/01/02 06:46:45;;;;;;;2.72;1.23;;;;;;;18.96;51.20;101133.81;4992391;28;20450;-68
2023/01/02 06:49:10;;;;;;;4.17;1.30;;;;;;;18.98;51.03;101140.66;5001779;28;20038;-70
2023/01/02 06:51:36;;;;;;;3.40;1.40;;;;;;;18.99;50.96;101147.63;4987740;28;20267;-68
2023/01/02 06:54:01;;;;;;;3.13;1.30;;;;;;;19.03;50.97;101162.25;5003781;28;20612;-70
2023/01/02 06:56:26;;;;;;;3.00;1.30;;;;;;;19.05;51.12;101148.91;4991386;28;20260;-68
2023/01/02 06:58:51;;;;;;;3.15;1.20;;;;;;;19.07;51.10;101162.00;4984831;28;20330;-70
2023/01/02 07:01:19;;;;;;;4.45;1.38;;;;;;;19.08;51.08;101176.91;4986203;28;20061;-69
2023/01/02 07:03:44;;;;;;;2.15;1.00;;;;;;;19.09;50.83;101181.19;4995893;28;20417;-70
2023/01/02 07:06:14;;;;;;;3.05;0.98;;;;;;;19.10;50.89;101188.16;4983902;28;20105;-68
2023/01/02 07:08:41;;;;;;;3.03;1.05;;;;;;;19.09;50.95;101191.75;5001803;28;20034;-69
2023/01/02 07:11:14;;;;;;;3.75;1.00;;;;;;;19.12;50.81;101205.59;5001207;28;20494;-70
2023/01/02 07:13:41;;;;;;;1.58;0.80;;;;;;;19.11;50.75;101209.19;4986306;28;20488;-69
2023/01/02 07:16:08;;;;;;;2.47;1.02;;;;;;;19.11;50.78;101211.81;5002641;28;20117;-69
2023/01/02 07:18:34;;;;;;;2.85;1.00;;;;;;;19.15;50.66;101225.63;4987338;28;20037;-70
2023/01/02 07:21:00;;;;;;;2.50;0.80;;;;;;;19.14;50.54;101234.53;5002726;28;20045;-69
2023/01/02 07:23:25;;;;;;;3.05;1.00;;;;;;;19.15;50.55;101231.78;5002553;28;20042;-70
2023/01/02 07:25:55;;;;;;;1.70;0.80;;;;;;;19.12;50.65;101245.22;5002851;28;20687;-69
2023/01/02 07:28:21;;;;;;;2.45;0.80;;;;;;;19.15;50.51;101252.03;4988018;28;20149;-69
2023/01/02 07:30:46;;;;;;;2.42;0.88;;;;;;;19.15;50.54;101265.25;5002164;28;20109;-69
2023/01/02 07:33:11;;;;;;;2.13;0.80;;;;;;;19.13;50.61;101268.00;5001062;28;20072;-69
2023/01/02 07:35:37;;;;;;;1.83;0.80;;;;;;;19.17;50.41;101266.00;4982841;28;20077;-69
2023/01/02 07:38:02;;;;;;;1.98;0.90;;;;;;;19.16;50.35;101267.78;4984784;28;20038;-71
2023/01/02 07:40:27;;;;;;;0.93;0.60;;;;;;;19.14;50.37;101263.59;4992536;28;20049;-71
2023/01/02 07:42:53;;;;;;;1.10;0.60;;;;;;;19.16;50.30;101281.00;4982972;28;20030;-69
2023/01/02 07:45:18;;;;;;;2.40;0.80;;;;;;;19.14;50.30;101272.34;4982146;28;20758;-70
2023/01/02 07:47:44;;;;;;;1.38;0.70;;;;;;;19.17;50.34;101295.06;4982471;28;20038;-70
2023/01/02 07:50:09;;;;;;;2.22;0.90;;;;;;;19.17;50.28;101300.34;4981788;28;20038;-70
2023/01/02 07:52:34;;;;;;;1.92;0.85;;;;;;;19.18;50.33;101312.56;4986753;28;20034;-71
2023/01/02 07:54:59;;;;;;;2.50;0.83;;;;;;;19.16;50.23;101314.50;5002562;28;20526;-68
2023/01/02 07:57:28;;;;;;;2.58;0.70;;;;;;;19.13;50.15;101310.28;4981850;28;20368;-71
2023/01/02 07:59:53;;;;;;;1.15;0.60;;;;;;;19.19;50.13;101324.84;4983870;28;20066;-70
2023/01/02 08:02:19;;;;;;;1.65;0.73;;;;;;;19.15;50.43;101326.88;4983650;28;20061;-68
2023/01/02 08:04:44;;;;;;;2.95;0.80;;;;;;;19.16;50.02;101336.47;4983077;28;20096;-69
2023/01/02 08:07:09;;;;;;;1.80;0.70;;;;;;;19.18;49.98;101344.28;4982382;28;20113;-70
2023/01/02 08:09:34;;;;;;;1.77;0.90;;;;;;;19.17;50.15;101355.81;4982577;28;20272;-69
2023/01/02 08:12:00;;;;;;;2.22;0.70;;;;;;;19.13;49.68;101346.44;5000825;28;20451;-71
2023/01/02 08:14:25;;;;;;;1.30;0.70;;;;;;;19.19;50.06;101373.22;4986205;28;20033;-69
2023/01/02 08:16:50;;;;;;;1.98;0.85;;;;;;;19.18;49.94;101373.34;4996130;28;20782;-69
2023/01/02 08:19:15;;;;;;;1.70;0.80;;;;;;;19.13;49.95;101367.56;4988265;28;20049;-69
2023/01/02 08:21:41;;;;;;;1.37;0.60;;;;;;;19.16;49.93;101378.75;4996121;28;20435;-71
2023/01/02 08:24:07;;;;;;;1.77;0.80;;;;;;;19.14;50.00;101374.56;5001782;28;20259;-68
2023/01/02 08:26:32;;;;;;;2.00;0.80;;;;;;;19.13;49.81;101378.97;4994699;28;20272;-69
2023/01/02 08:28:58;;;;;;;1.75;0.80;;;;;;;19.15;49.81;101385.00;4982116;28;20053;-68
2023/01/02 08:31:24;;;;;;;1.80;0.80;;;;;;;19.16;49.89;101386.66;4985246;28;20085;-70
2023/01/02 08:33:49;;;;;;;1.23;0.65;;;;;;;19.15;49.67;101394.72;5001486;28;20677;-69
2023/01/02 08:36:14;;;;;;;1.42;0.68;;;;;;;19.16;49.44;101393.75;4995918;28;20141;-69
2023/01/02 08:38:40;;;;;;;3.00;0.88;;;;;;;19.15;49.24;101398.22;4992384;28;20042;-69
2023/01/02 08:41:05;;;;;;;2.80;0.90;;;;;;;19.13;49.33;101397.47;4990918;28;20166;-68
2023/01/02 08:43:35;;;;;;;3.22;0.80;;;;;;;19.14;49.55;101406.25;4981743;28;20490;-68
2023/01/02 08:46:05;;;;;;;2.00;0.82;;;;;;;19.12;49.53;101414.31;4986762;28;20044;-70
2023/01/02 08:48:30;;;;;;;1.45;0.70;;;;;;;19.11;49.70;101409.97;5001204;28;20128;-71
2023/01/02 08:50:56;;;;;;;1.77;0.60;;;;;;;19.12;49.64;101424.88;4998197;28;20499;-66
2023/01/02 08:53:21;;;;;;;1.43;0.70;;;;;;;19.12;49.77;101424.00;4993990;28;20823;-67
2023/01/02 08:55:46;;;;;;;1.27;0.70;;;;;;;19.14;49.54;101432.69;4981930;28;20268;-67
2023/01/02 08:58:12;;;;;;;1.40;0.60;;;;;;;19.12;49.73;101430.16;4981773;28;20954;-69
2023/01/02 09:00:37;;;;;;;1.27;0.60;;;;;;;19.12;49.92;101438.09;4982095;28;20060;-67
2023/01/02 09:03:02;;;;;;;1.33;0.70;;;;;;;19.14;49.90;101440.59;4983075;28;20030;-68
2023/01/02 09:05:29;;;;;;;1.63;0.68;;;;;;;19.13;49.90;101445.03;5001263;28;20033;-70
2023/01/02 09:07:55;;;;;;;1.48;0.70;;;;;;;19.11;49.97;101444.31;5001036;28;20033;-67
2023/01/02 09:10:21;;;;;;;1.67;0.65;;;;;;;19.13;50.04;101445.03;5001276;28;20149;-69
2023/01/02 09:12:46;;;;;;;2.15;0.70;;;;;;;19.15;50.06;101458.13;5000962;28;20120;-68
2023/01/02 09:15:11;;;;;;;1.38;0.60;;;;;;;19.13;50.10;101460.88;5000983;28;20033;-71
2023/01/02 09:17:37;;;;;;;1.67;0.70;;;;;;;19.15;50.13;101466.91;4968131;28;20144;-70
2023/01/02 09:20:02;;;;;;;1.98;0.70;;;;;;;19.13;49.96;101474.09;5000894;28;20268;-70
2023/01/02 09:22:28;;;;;;;2.10;0.80;;;;;;;19.14;49.96;101491.63;5001178;28;20040;-69
2023/01/02 09:24:53;;;;;;;1.58;0.70;;;;;;;19.14;50.04;101491.63;4991304;28;20085;-70
2023/01/02 09:27:18;;;;;;;1.87;0.73;;;;;;;19.17;50.09;101496.69;4983990;28;20061;-69
2023/01/02 09:29:43;;;;;;;2.60;1.53;;;;;;;19.18;50.18;101503.66;4983073;28;20330;-67
2023/01/02 09:32:09;;;;;;;2.97;0.50;;;;;;;19.18;50.17;101500.16;4984334;28;20351;-68
2023/01/02 09:34:34;;;;;;;2.50;0.70;;;;;;;19.18;50.23;101497.53;4993485;28;20069;-68
2023/01/02 09:36:59;;;;;;;1.42;0.68;;;;;;;19.18;50.25;101506.31;5000517;28;20295;-70
2023/01/02 09:39:24;;;;;;;2.80;0.70;;;;;;;19.19;50.31;101515.06;4999389;28;20057;-70
2023/01/02 09:41:53;;;;;;;1.33;0.43;;;;;;;19.17;49.74;101515.19;5000786;28;20034;-69
2023/01/02 09:44:21;;;;;;;1.35;0.65;;;;;;;19.19;50.33;101517.72;5000898;28;20458;-68
2023/01/02 09:46:52;;;;;;;2.78;0.57;;;;;;;19.18;50.12;101516.88;4983119;28;20081;-67
2023/01/02 09:49:21;;;;;;;3.20;0.70;;;;;;;19.17;49.85;101522.28;4981493;28;20050;-68
2023/01/02 09:51:47;;;;;;;2.58;0.77;;;;;;;19.12;49.87;101509.41;4996205;28;20049;-68
2023/01/02 09:54:20;;;;;;;3.05;1.20;;;;;;;19.17;50.07;101532.84;4998557;28;20034;-70
2023/01/02 09:56:54;;;;;;;2.38;0.68;;;;;;;19.14;50.10;101523.34;4984708;28;20042;-67
2023/01/02 09:59:46;;;;;;;1.98;0.60;;;;;;;19.19;50.07;101534.41;4984424;28;20601;-69
2023/01/02 10:02:28;;;;;;;2.08;0.60;;;;;;;19.15;50.21;101532.09;4992111;28;20587;-69
2023/01/02 10:05:30;;;;;;;1.50;0.63;;;;;;;19.20;50.16;101538.75;5004393;28;20076;-71
2023/01/02 10:07:56;;;;;;;3.58;0.75;;;;;;;19.21;50.00;101544.84;5001516;28;20040;-68
2023/01/02 10:10:42;;;;;;;3.60;0.73;;;;;;;19.19;49.98;101552.06;4997428;28;20137;-70
2023/01/02 10:13:32;;;;;;;4.07;0.88;;;;;;;19.20;49.91;101546.66;4992956;28;20292;-70
2023/01/02 10:16:01;;;;;;;1.88;0.52;;;;;;;19.16;50.24;101545.19;5003713;28;20552;-67
2023/01/02 10:18:31;;;;;;;2.67;0.70;;;;;;;19.16;50.12;101545.19;4991883;28;20041;-70
2023/01/02 10:21:23;;;;;;;2.08;0.52;;;;;;;19.19;50.17;101547.63;4984666;28;20042;-67
2023/01/02 10:23:53;;;;;;;2.33;0.70;;;;;;;19.16;50.06;101532.00;4984252;28;20117;-69
2023/01/02 10:26:21;;;;;;;1.65;0.63;;;;;;;19.19;50.19;101536.22;4984133;28;20042;-67
2023/01/02 10:29:05;;;;;;;4.07;0.80;;;;;;;19.24;50.07;101547.28;4983730;28;20030;-68
2023/01/02 10:31:35;;;;;;;;;;;;;;;19.29;49.80;101547.75;4987850;28;20099;-69
2023/01/02 10:34:02;;;;;;;2.95;0.80;;;;;;;19.23;50.08;101552.66;5003668;28;19920;-68
2023/01/02 10:36:33;;;;;;;1.65;0.57;;;;;;;19.21;50.08;101564.19;5003520;28;20076;-69
2023/01/02 10:39:05;;;;;;;1.75;0.70;;;;;;;19.20;50.48;101565.16;5003123;28;20038;-68
2023/01/02 10:41:31;;;;;;;3.47;1.05;;;;;;;19.22;50.23;101557.13;4995342;28;20038;-69
2023/01/02 10:44:01;;;;;;;4.50;0.90;;;;;;;19.22;49.86;101565.06;4988728;28;20408;-69
2023/01/02 10:46:30;;;;;;;2.40;0.75;;;;;;;19.22;50.31;101557.13;4994293;28;20041;-68
2023/01/02 10:48:56;;;;;;;3.53;0.80;;;;;;;19.22;50.04;101559.75;5003170;28;20030;-69
2023/01/02 10:51:21;;;;;;;4.10;0.98;;;;;;;19.20;50.17;101566.94;5003362;28;20131;-67
2023/01/02 10:54:07;;;;;;;2.95;1.00;;;;;;;19.19;50.11;101560.00;4995055;28;20608;-68
2023/01/02 10:56:35;;;;;;;1.73;0.60;;;;;;;19.20;50.01;101561.66;4984055;28;20034;-67
2023/01/02 10:59:01;;;;;;;1.50;0.60;;;;;;;19.20;50.00;101567.81;4983954;28;20041;-68
2023/01/02 11:01:27;;;;;;;1.75;0.80;;;;;;;19.21;49.97;101580.03;4983728;28;20038;-66
2023/01/02 11:03:56;;;;;;;3.50;0.80;;;;;;;19.21;49.92;101579.22;4991695;28;20066;-68
2023/01/02 11:06:30;;;;;;;2.03;0.70;;;;;;;19.18;50.00;101587.34;4996083;28;20113;-68
2023/01/02 11:09:03;;;;;;;1.95;0.70;;;;;;;19.21;50.04;101587.13;4989500;28;20030;-68
2023/01/02 11:11:31;;;;;;;1.50;0.70;;;;;;;19.19;50.08;101586.41;4992378;28;20064;-68
2023/01/02 11:14:06;;;;;;;3.10;0.80;;;;;;;19.18;50.11;101587.34;4983369;28;20033;-68
2023/01/02 11:16:36;;;;;;;2.47;0.80;;;;;;;19.19;49.86;101587.25;4999295;28;20455;-68
2023/01/02 11:19:06;;;;;;;3.72;0.85;;;;;;;19.22;49.98;101591.47;4999380;28;20443;-69
2023/01/02 11:21:34;;;;;;;2.30;0.90;;;;;;;19.21;50.09;101587.97;4982244;28;20485;-67
2023/01/02 11:24:03;;;;;;;1.83;0.80;;;;;;;19.19;50.03;101595.19;4988770;28;20042;-71
2023/01/02 11:26:30;;;;;;;3.25;0.90;;;;;;;19.23;50.06;101600.25;4989895;28;20033;-73
2023/01/02 11:29:07;;;;;;;4.97;1.52;;;;;;;19.28;50.00;101600.72;4981294;28;20030;-72
2023/01/02 11:31:32;;;;;;;2.88;0.90;;;;;;;19.32;49.77;101607.50;4993985;28;20575;-70
2023/01/02 11:34:16;;;;;;;3.28;0.93;;;;;;;19.29;49.93;101602.44;4996945;28;20047;-71
2023/01/02 11:36:43;;;;;;;2.53;0.98;;;;;;;19.28;50.34;101598.09;4990627;28;20049;-68